createdAt,value
2018-09-05T00:01:48.152Z,79.80
2018-09-05T00:04:18.085Z,80.00
2018-09-05T00:06:48.446Z,80.10
2018-09-05T00:09:18.053Z,80.60
2018-09-05T00:11:48.126Z,80.70
2018-09-05T00:14:18.165Z,80.90
2018-09-05T00:16:48.316Z,81.20
2018-09-05T00:19:18.063Z,81.30
2018-09-05T00:21:48.093Z,81.50
2018-09-05T00:24:18.080Z,80.80
2018-09-05T00:26:48.050Z,80.90
2018-09-05T00:29:18.130Z,80.60
2018-09-05T00:31:48.183Z,80.50
2018-09-05T00:34:18.141Z,80.80
2018-09-05T00:36:48.173Z,80.90
2018-09-05T00:39:18.576Z,81.00
2018-09-05T00:41:48.200Z,81.20
2018-09-05T00:44:18.368Z,81.60
2018-09-05T00:46:48.192Z,81.70
2018-09-05T00:49:18.170Z,81.80
2018-09-05T00:51:48.310Z,81.90
2018-09-05T00:54:18.622Z,82.30
2018-09-05T00:56:48.174Z,82.60
2018-09-05T00:59:18.234Z,82.60
2018-09-05T01:01:48.246Z,82.80
2018-09-05T01:04:18.300Z,83.00
2018-09-05T01:06:48.363Z,83.50
2018-09-05T01:09:18.283Z,84.80
2018-09-05T01:11:48.169Z,85.20
2018-09-05T01:14:18.191Z,84.30
2018-09-05T01:16:48.253Z,84.00
2018-09-05T01:19:18.302Z,84.10
2018-09-05T01:21:48.230Z,86.10
2018-09-05T01:24:18.381Z,84.50
2018-09-05T01:26:48.206Z,84.40
2018-09-05T01:29:18.286Z,84.10
2018-09-05T01:31:48.427Z,84.00
2018-09-05T01:34:18.321Z,84.60
2018-09-05T01:36:48.285Z,84.10
2018-09-05T01:39:18.354Z,84.20
2018-09-05T01:41:48.311Z,83.90
2018-09-05T01:44:18.401Z,83.80
2018-09-05T01:46:48.311Z,83.90
2018-09-05T01:49:18.549Z,83.50
2018-09-05T01:51:48.427Z,83.60
2018-09-05T01:54:18.412Z,83.10
2018-09-05T01:56:48.583Z,83.00
2018-09-05T01:59:18.322Z,83.60
2018-09-05T02:01:48.834Z,82.80
2018-09-05T02:04:18.970Z,82.90
2018-09-05T02:06:48.351Z,82.70
2018-09-05T02:09:18.431Z,83.10
2018-09-05T02:11:48.455Z,83.50
2018-09-05T02:14:18.457Z,83.30
2018-09-05T02:16:48.387Z,83.00
2018-09-05T02:19:18.396Z,83.30
2018-09-05T02:21:48.409Z,83.60
2018-09-05T02:24:18.580Z,83.60
2018-09-05T02:26:48.382Z,83.70
2018-09-05T02:29:18.353Z,83.40
2018-09-05T02:31:48.391Z,83.30
2018-09-05T02:34:18.525Z,83.60
2018-09-05T02:36:48.361Z,83.50
2018-09-05T02:39:18.470Z,82.70
2018-09-05T02:41:48.503Z,82.90
2018-09-05T02:44:19.786Z,83.20
2018-09-05T02:46:49.257Z,83.20
2018-09-05T02:49:18.554Z,83.00
2018-09-05T02:51:48.632Z,82.80
2018-09-05T02:54:18.507Z,83.20
2018-09-05T02:56:48.507Z,83.20
2018-09-05T02:59:18.538Z,83.70
2018-09-05T03:01:48.449Z,83.60
2018-09-05T03:04:18.514Z,83.80
2018-09-05T03:06:48.622Z,83.70
2018-09-05T03:09:18.494Z,83.60
2018-09-05T03:11:48.543Z,83.70
2018-09-05T03:14:18.607Z,83.70
2018-09-05T03:16:48.641Z,83.80
2018-09-05T03:19:18.534Z,84.00
2018-09-05T03:21:48.572Z,84.40
2018-09-05T03:24:18.594Z,84.40
2018-09-05T03:26:48.772Z,84.40
2018-09-05T03:29:19.097Z,84.50
2018-09-05T03:31:48.621Z,84.40
2018-09-05T03:34:18.546Z,84.70
2018-09-05T03:36:48.559Z,84.70
2018-09-05T03:39:18.483Z,84.90
2018-09-05T03:41:48.624Z,86.10
2018-09-05T03:44:18.491Z,84.60
2018-09-05T03:46:48.754Z,85.00
2018-09-05T03:49:18.666Z,86.30
2018-09-05T03:51:48.574Z,85.00
2018-09-05T03:54:18.603Z,85.00
2018-09-05T03:56:48.598Z,84.80
2018-09-05T03:59:18.683Z,84.70
2018-09-05T04:01:48.699Z,85.00
2018-09-05T04:04:18.713Z,84.90
2018-09-05T04:06:48.714Z,84.90
2018-09-05T04:09:18.583Z,85.10
2018-09-05T04:11:48.868Z,85.10
2018-09-05T04:14:19.028Z,85.20
2018-09-05T04:16:48.702Z,85.60
2018-09-05T04:19:18.735Z,85.80
2018-09-05T04:21:48.626Z,86.20
2018-09-05T04:24:18.615Z,86.30
2018-09-05T04:26:48.683Z,86.50
2018-09-05T04:29:18.716Z,86.20
2018-09-05T04:31:48.686Z,86.20
2018-09-05T04:34:18.727Z,86.30
2018-09-05T04:36:48.804Z,86.30
2018-09-05T04:39:18.721Z,86.40
2018-09-05T04:41:48.751Z,86.20
2018-09-05T04:44:18.674Z,86.50
2018-09-05T04:46:48.704Z,87.60
2018-09-05T04:49:18.805Z,90.40
2018-09-05T04:51:54.073Z,86.20
2018-09-05T04:54:29.652Z,86.50
2018-09-05T04:56:59.223Z,86.40
2018-09-05T04:59:28.583Z,86.80
2018-09-05T05:01:58.271Z,87.00
2018-09-05T05:04:27.655Z,87.30
2018-09-05T05:06:56.990Z,87.60
2018-09-05T05:09:26.724Z,87.20
2018-09-05T05:11:56.082Z,87.60
2018-09-05T05:14:25.416Z,87.60
2018-09-05T05:16:54.804Z,87.50
2018-09-05T05:19:24.124Z,87.90
2018-09-05T05:21:53.463Z,87.70
2018-09-05T05:24:22.831Z,87.60
2018-09-05T05:26:52.416Z,89.70
2018-09-05T05:29:21.751Z,87.80
2018-09-05T05:31:51.063Z,89.00
2018-09-05T05:34:20.894Z,89.50
2018-09-05T05:36:50.310Z,88.30
2018-09-05T05:39:19.658Z,88.90
2018-09-05T05:41:49.052Z,88.50
2018-09-05T05:44:18.891Z,88.70
2018-09-05T05:46:49.117Z,89.40
2018-09-05T05:49:18.839Z,89.70
2018-09-05T05:51:48.846Z,89.00
2018-09-05T05:54:18.829Z,90.30
2018-09-05T05:56:48.980Z,90.00
2018-09-05T05:59:18.976Z,89.10
2018-09-05T06:01:48.851Z,89.10
2018-09-05T06:04:19.019Z,90.10
2018-09-05T06:06:48.922Z,88.30
2018-09-05T06:09:18.930Z,89.70
2018-09-05T06:11:49.170Z,88.10
2018-09-05T06:14:19.013Z,88.00
2018-09-05T06:16:48.925Z,89.20
2018-09-05T06:19:18.970Z,90.10
2018-09-05T06:21:48.987Z,89.60
2018-09-05T06:24:19.009Z,90.20
2018-09-05T06:26:49.260Z,89.50
2018-09-05T06:29:19.492Z,88.90
2018-09-05T06:31:49.014Z,89.20
2018-09-05T06:34:20.325Z,89.10
2018-09-05T06:36:49.604Z,88.60
2018-09-05T06:39:18.964Z,89.30
2018-09-05T06:41:49.030Z,89.00
2018-09-05T06:44:18.984Z,89.10
2018-09-05T06:46:48.904Z,89.30
2018-09-05T06:49:18.913Z,89.70
2018-09-05T06:51:49.005Z,90.20
2018-09-05T06:54:18.946Z,90.30
2018-09-05T06:56:49.044Z,90.30
2018-09-05T06:59:19.049Z,90.00
2018-09-05T07:01:49.048Z,90.30
2018-09-05T07:04:19.074Z,90.10
2018-09-05T07:06:49.061Z,90.20
2018-09-05T07:09:19.060Z,90.80
2018-09-05T07:11:49.005Z,90.60
2018-09-05T07:14:19.134Z,90.80
2018-09-05T07:16:49.071Z,90.90
2018-09-05T07:19:19.088Z,90.30
2018-09-05T07:21:49.183Z,90.30
2018-09-05T07:24:19.012Z,90.10
2018-09-05T07:26:49.111Z,90.60
2018-09-05T07:29:19.080Z,90.30
2018-09-05T07:31:49.105Z,90.30
2018-09-05T07:34:19.193Z,90.40
2018-09-05T07:36:49.243Z,90.00
2018-09-05T07:39:19.177Z,90.10
2018-09-05T07:41:49.206Z,89.70
2018-09-05T07:44:19.070Z,89.30
2018-09-05T07:46:49.147Z,88.70
2018-09-05T07:49:19.114Z,88.20
2018-09-05T07:51:49.043Z,87.80
2018-09-05T07:54:19.159Z,88.20
2018-09-05T07:56:49.259Z,88.30
2018-09-05T07:59:19.134Z,88.50
2018-09-05T08:01:49.114Z,88.60
2018-09-05T08:04:19.231Z,88.50
2018-09-05T08:06:49.182Z,88.00
2018-09-05T08:09:19.181Z,87.40
2018-09-05T08:11:49.262Z,87.40
2018-09-05T08:14:19.203Z,87.50
2018-09-05T08:16:49.099Z,86.60
2018-09-05T08:19:19.189Z,86.90
2018-09-05T08:21:49.201Z,87.10
2018-09-05T08:24:19.490Z,87.90
2018-09-05T08:26:49.125Z,87.70
2018-09-05T08:29:19.271Z,87.80
2018-09-05T08:31:49.199Z,88.00
2018-09-05T08:34:19.442Z,87.80
2018-09-05T08:36:49.318Z,87.30
2018-09-05T08:39:19.164Z,87.60
2018-09-05T08:41:49.366Z,87.30
2018-09-05T08:44:19.433Z,87.20
2018-09-05T08:46:49.345Z,87.30
2018-09-05T08:49:19.210Z,87.60
2018-09-05T08:51:49.305Z,87.70
2018-09-05T08:54:19.260Z,88.20
2018-09-05T08:56:49.289Z,87.00
2018-09-05T08:59:19.228Z,86.30
2018-09-05T09:01:49.302Z,84.00
2018-09-05T09:04:19.309Z,82.90
2018-09-05T09:06:49.221Z,82.20
2018-09-05T09:09:19.226Z,82.60
2018-09-05T09:11:49.333Z,82.90
2018-09-05T09:14:19.310Z,82.60
2018-09-05T09:16:49.331Z,82.80
2018-09-05T09:19:19.454Z,82.10
2018-09-05T09:21:49.342Z,82.00
2018-09-05T09:24:19.370Z,82.20
2018-09-05T09:26:49.398Z,82.00
2018-09-05T09:29:19.342Z,81.20
2018-09-05T09:31:49.555Z,81.70
2018-09-05T09:34:19.275Z,81.50
2018-09-05T09:36:49.301Z,81.60
2018-09-05T09:39:19.383Z,81.40
2018-09-05T09:41:49.373Z,81.20
2018-09-05T09:44:26.142Z,80.90
2018-09-05T09:46:55.470Z,80.80
2018-09-05T09:49:24.975Z,80.70
2018-09-05T09:51:58.394Z,80.90
2018-09-05T09:54:27.700Z,80.20
2018-09-05T09:56:57.047Z,78.70
2018-09-05T09:59:26.469Z,78.20
2018-09-05T10:02:00.958Z,78.90
2018-09-05T10:04:35.437Z,79.10
2018-09-05T10:07:10.061Z,79.00
2018-09-05T10:09:44.493Z,79.80
2018-09-05T10:12:18.957Z,79.10
2018-09-05T10:14:55.095Z,78.70
2018-09-05T10:17:29.572Z,78.00
2018-09-05T10:19:59.796Z,78.60
2018-09-05T10:22:29.852Z,78.80
2018-09-05T10:24:59.185Z,79.20
2018-09-05T10:27:29.037Z,79.20
2018-09-05T10:29:58.841Z,78.00
2018-09-05T10:32:28.127Z,77.20
2018-09-05T10:34:57.520Z,75.80
2018-09-05T10:37:26.864Z,75.90
2018-09-05T10:39:56.133Z,75.50
2018-09-05T10:42:25.530Z,75.30
2018-09-05T10:44:54.816Z,75.60
2018-09-05T10:47:24.123Z,75.20
2018-09-05T10:49:53.470Z,74.60
2018-09-05T10:52:22.759Z,73.40
2018-09-05T10:54:52.067Z,73.50
2018-09-05T10:57:21.546Z,73.30
2018-09-05T10:59:50.838Z,73.70
2018-09-05T11:02:20.186Z,73.90
2018-09-05T11:04:49.568Z,73.50
2018-09-05T11:07:19.569Z,71.50
2018-09-05T11:09:49.967Z,71.20
2018-09-05T11:12:19.792Z,70.80
2018-09-05T11:14:49.808Z,70.70
2018-09-05T11:17:20.008Z,70.40
2018-09-05T11:19:49.795Z,70.70
2018-09-05T11:22:19.861Z,68.80
2018-09-05T11:24:49.821Z,70.20
2018-09-05T11:27:19.807Z,68.40
2018-09-05T11:29:49.813Z,65.60
2018-09-05T11:32:19.826Z,66.00
2018-09-05T11:34:49.787Z,67.10
2018-09-05T11:37:19.838Z,66.40
2018-09-05T11:39:49.986Z,65.40
2018-09-05T11:42:19.841Z,67.30
2018-09-05T11:44:49.890Z,67.50
2018-09-05T11:47:19.913Z,68.00
2018-09-05T11:49:49.968Z,68.30
2018-09-05T11:52:19.952Z,67.70
2018-09-05T11:54:49.863Z,67.50
2018-09-05T11:57:20.166Z,68.00
2018-09-05T11:59:49.895Z,68.00
2018-09-05T12:02:20.051Z,67.20
2018-09-05T12:05:22.616Z,66.90
2018-09-05T12:07:52.099Z,66.40
2018-09-05T12:10:21.428Z,66.60
2018-09-05T12:12:50.691Z,65.40
2018-09-05T12:15:19.985Z,66.70
2018-09-05T12:17:49.926Z,65.70
2018-09-05T12:20:44.551Z,65.50
2018-09-05T12:23:13.871Z,65.30
2018-09-05T12:25:43.265Z,63.90
2018-09-05T12:28:12.604Z,63.60
2018-09-05T12:30:41.898Z,64.50
2018-09-05T12:33:11.237Z,64.10
2018-09-05T12:35:40.718Z,64.80
2018-09-05T12:38:10.088Z,65.30
2018-09-05T12:40:39.409Z,64.70
2018-09-05T12:43:08.756Z,63.70
2018-09-05T12:45:38.050Z,65.10
2018-09-05T12:48:07.372Z,64.00
2018-09-05T12:50:36.837Z,63.30
2018-09-05T12:53:06.143Z,63.10
2018-09-05T12:55:35.515Z,61.00
2018-09-05T12:58:04.918Z,60.90
2018-09-05T13:00:34.342Z,60.80
2018-09-05T13:03:03.886Z,61.00
2018-09-05T13:05:33.281Z,61.60
2018-09-05T13:08:02.586Z,61.40
2018-09-05T13:10:32.463Z,61.70
2018-09-05T13:13:01.804Z,62.40
2018-09-05T13:15:31.283Z,62.40
2018-09-05T13:18:00.645Z,61.50
2018-09-05T13:20:30.039Z,60.80
2018-09-05T13:22:59.384Z,61.30
2018-09-05T13:25:28.912Z,60.20
2018-09-05T13:27:58.253Z,60.30
2018-09-05T13:30:27.577Z,60.50
2018-09-05T13:32:57.091Z,60.80
2018-09-05T13:35:26.513Z,61.40
2018-09-05T13:37:55.853Z,62.10
2018-09-05T13:40:25.501Z,61.30
2018-09-05T13:42:54.886Z,60.30
2018-09-05T13:45:24.485Z,62.30
2018-09-05T13:47:53.826Z,62.40
2018-09-05T13:50:23.132Z,62.30
2018-09-05T13:52:52.452Z,62.40
2018-09-05T13:55:21.737Z,62.30
2018-09-05T13:57:51.075Z,62.80
2018-09-05T14:00:20.498Z,63.00
2018-09-05T14:02:50.158Z,62.40
2018-09-05T14:05:20.267Z,63.00
2018-09-05T14:07:50.221Z,62.60
2018-09-05T14:10:20.246Z,61.70
2018-09-05T14:12:50.273Z,62.40
2018-09-05T14:15:20.287Z,63.10
2018-09-05T14:17:50.260Z,63.30
2018-09-05T14:20:20.327Z,63.00
2018-09-05T14:22:50.254Z,61.80
2018-09-05T14:25:20.538Z,62.30
2018-09-05T14:27:50.334Z,61.60
2018-09-05T14:30:20.339Z,61.90
2018-09-05T14:32:50.278Z,61.90
2018-09-05T14:35:21.627Z,62.60
2018-09-05T14:37:51.488Z,63.10
2018-09-05T14:40:20.903Z,62.90
2018-09-05T14:42:50.405Z,62.20
2018-09-05T14:45:20.273Z,61.50
2018-09-05T14:47:50.564Z,60.40
2018-09-05T14:50:20.366Z,60.40
2018-09-05T14:52:50.258Z,60.70
2018-09-05T14:55:20.327Z,61.30
2018-09-05T14:57:50.506Z,61.70
2018-09-05T15:00:20.360Z,60.90
2018-09-05T15:02:50.299Z,60.80
2018-09-05T15:05:20.385Z,60.90
2018-09-05T15:07:51.381Z,61.00
2018-09-05T15:10:20.716Z,60.90
2018-09-05T15:12:50.298Z,60.20
2018-09-05T15:15:20.417Z,60.30
2018-09-05T15:17:50.435Z,60.60
2018-09-05T15:20:20.365Z,60.50
2018-09-05T15:23:05.197Z,61.10
2018-09-05T15:25:34.520Z,60.90
2018-09-05T15:28:03.920Z,60.80
2018-09-05T15:30:33.252Z,61.60
2018-09-05T15:33:02.649Z,61.30
2018-09-05T15:35:32.011Z,61.60
2018-09-05T15:38:01.409Z,61.60
2018-09-05T15:40:30.775Z,61.80
2018-09-05T15:43:00.359Z,61.60
2018-09-05T15:45:30.224Z,61.50
2018-09-05T15:47:59.779Z,59.30
2018-09-05T15:50:29.109Z,60.10
2018-09-05T15:52:58.433Z,60.90
2018-09-05T15:55:27.803Z,60.50
2018-09-05T15:57:57.187Z,60.70
2018-09-05T16:00:26.526Z,60.90
2018-09-05T16:02:55.874Z,60.60
2018-09-05T16:05:25.500Z,61.00
2018-09-05T16:07:54.863Z,60.90
2018-09-05T16:10:24.161Z,60.60
2018-09-05T16:12:56.849Z,60.90
2018-09-05T16:15:26.292Z,61.00
2018-09-05T16:17:55.906Z,61.40
2018-09-05T16:20:25.214Z,61.10
2018-09-05T16:22:54.542Z,61.30
2018-09-05T16:25:23.958Z,61.00
2018-09-05T16:27:53.366Z,60.00
2018-09-05T16:33:23.130Z,60.60
2018-09-05T16:35:52.581Z,61.10
2018-09-05T16:38:21.931Z,61.20
2018-09-05T16:40:51.302Z,61.30
2018-09-05T16:43:20.669Z,61.50
2018-09-05T16:45:50.583Z,61.80
2018-09-05T16:48:20.615Z,61.90
2018-09-05T16:50:50.528Z,61.90
2018-09-05T16:55:56.057Z,62.20
2018-09-05T16:58:25.373Z,62.10
2018-09-05T17:00:54.804Z,62.40
2018-09-05T17:03:24.233Z,62.90
2018-09-05T17:05:53.739Z,62.80
2018-09-05T17:08:23.170Z,63.30
2018-09-05T17:10:52.568Z,63.10
2018-09-05T17:13:21.886Z,63.10
2018-09-05T17:15:51.269Z,63.10
2018-09-05T17:18:20.751Z,63.00
2018-09-05T17:20:50.663Z,63.20
2018-09-05T17:23:20.628Z,63.50
2018-09-05T17:25:50.655Z,64.10
2018-09-05T17:28:20.685Z,64.30
2018-09-05T17:30:50.859Z,64.20
2018-09-05T17:33:20.741Z,64.60
2018-09-05T17:35:50.689Z,64.60
2018-09-05T17:38:20.729Z,64.80
2018-09-05T17:40:50.653Z,64.30
2018-09-05T17:43:20.671Z,65.40
2018-09-05T17:45:50.767Z,65.70
2018-09-05T17:48:20.832Z,65.80
2018-09-05T17:50:50.837Z,66.10
2018-09-05T17:53:20.830Z,66.60
2018-09-05T17:55:50.673Z,66.80
2018-09-05T17:58:20.720Z,67.00
2018-09-05T18:00:50.765Z,67.40
2018-09-05T18:03:20.769Z,67.80
2018-09-05T18:05:50.773Z,68.30
2018-09-05T18:08:20.711Z,68.40
2018-09-05T18:10:50.897Z,68.50
2018-09-05T18:13:20.725Z,68.80
2018-09-05T18:15:50.743Z,68.90
2018-09-05T18:18:20.892Z,69.00
2018-09-05T18:20:50.787Z,69.20
2018-09-05T18:23:20.801Z,69.20
2018-09-05T18:25:50.829Z,69.30
2018-09-05T18:28:20.852Z,69.50
2018-09-05T18:30:50.772Z,70.20
2018-09-05T18:33:20.734Z,69.60
2018-09-05T18:35:50.925Z,69.70
2018-09-05T18:38:20.996Z,70.10
2018-09-05T18:40:50.788Z,70.70
2018-09-05T18:43:20.738Z,71.80
2018-09-05T18:45:50.872Z,72.20
2018-09-05T18:48:20.863Z,72.40
2018-09-05T18:50:50.728Z,72.90
2018-09-05T18:53:20.733Z,73.80
2018-09-05T18:55:50.858Z,74.10
2018-09-05T18:58:20.814Z,74.10
2018-09-05T19:00:50.913Z,74.50
2018-09-05T19:03:20.826Z,74.90
2018-09-05T19:05:50.956Z,75.40
2018-09-05T19:08:20.947Z,75.40
2018-09-05T19:10:50.916Z,76.10
2018-09-05T19:13:20.820Z,76.20
2018-09-05T19:15:50.863Z,76.40
2018-09-05T19:18:20.879Z,76.90
2018-09-05T19:20:50.849Z,76.90
2018-09-05T19:23:20.929Z,76.90
2018-09-05T19:25:51.346Z,76.80
2018-09-05T19:28:20.926Z,76.90
2018-09-05T19:30:50.923Z,76.90
2018-09-05T19:33:20.986Z,77.00
2018-09-05T19:35:50.934Z,77.50
2018-09-05T19:38:21.062Z,77.40
2018-09-05T19:40:52.218Z,77.80
2018-09-05T19:43:28.498Z,77.20
2018-09-05T19:46:01.430Z,77.30
2018-09-05T19:48:30.831Z,77.20
2018-09-05T19:51:00.175Z,76.70
2018-09-05T19:53:29.921Z,77.30
2018-09-05T19:55:59.245Z,77.00
2018-09-05T19:58:28.616Z,77.30
2018-09-05T20:00:58.001Z,76.90
2018-09-05T20:03:27.555Z,77.00
2018-09-05T20:05:56.946Z,77.20
2018-09-05T20:08:26.262Z,77.00
2018-09-05T20:10:55.718Z,76.50
2018-09-05T20:13:25.157Z,77.10
2018-09-05T20:15:54.528Z,77.20
2018-09-05T20:18:23.890Z,77.40
2018-09-05T20:20:53.201Z,77.10
2018-09-05T20:23:28.770Z,77.20
2018-09-05T20:25:58.405Z,77.60
2018-09-05T20:28:34.611Z,77.90
2018-09-05T20:31:10.916Z,77.20
2018-09-05T20:33:47.164Z,77.50
2018-09-05T20:36:23.557Z,77.30
2018-09-05T20:39:00.234Z,77.70
2018-09-05T20:41:29.764Z,77.50
2018-09-05T20:43:59.161Z,77.60
2018-09-05T20:46:28.441Z,77.40
2018-09-05T20:48:57.828Z,77.60
2018-09-05T20:51:27.257Z,77.70
2018-09-05T20:53:56.606Z,77.60
2018-09-05T20:56:25.929Z,77.70
2018-09-05T20:58:55.361Z,77.50
2018-09-05T21:01:24.801Z,78.40
2018-09-05T21:03:54.168Z,78.10
2018-09-05T21:06:23.543Z,78.50
2018-09-05T21:08:53.050Z,77.80
2018-09-05T21:11:22.384Z,78.20
2018-09-05T21:13:51.802Z,78.10
2018-09-05T21:16:21.676Z,78.00
2018-09-05T21:18:51.167Z,78.40
2018-09-05T21:21:21.072Z,78.70
2018-09-05T21:23:51.226Z,78.50
2018-09-05T21:26:21.329Z,78.40
2018-09-05T21:28:51.259Z,78.50
2018-09-05T21:31:21.140Z,78.60
2018-09-05T21:33:51.325Z,78.80
2018-09-05T21:36:21.214Z,79.10
2018-09-05T21:38:51.164Z,79.50
2018-09-05T21:41:21.320Z,78.80
2018-09-05T21:43:51.140Z,79.40
2018-09-05T21:46:21.192Z,79.80
2018-09-05T21:48:51.113Z,79.30
2018-09-05T21:51:21.204Z,79.60
2018-09-05T21:53:51.285Z,79.40
2018-09-05T21:56:21.320Z,79.50
2018-09-05T21:58:51.252Z,79.50
2018-09-05T22:01:21.395Z,79.60
2018-09-05T22:03:52.555Z,79.80
2018-09-05T22:06:21.925Z,80.10
2018-09-05T22:08:53.509Z,80.90
2018-09-05T22:11:27.001Z,80.20
2018-09-05T22:13:56.828Z,80.60
2018-09-05T22:16:26.282Z,80.90
2018-09-05T22:18:55.612Z,82.90
2018-09-05T22:21:24.974Z,81.60
2018-09-05T22:23:54.423Z,81.40
2018-09-05T22:26:23.793Z,81.60
2018-09-05T22:28:53.130Z,81.20
2018-09-05T22:31:22.475Z,81.20
2018-09-05T22:33:51.868Z,81.50
2018-09-05T22:36:21.342Z,81.40
2018-09-05T22:38:51.341Z,81.80
2018-09-05T22:41:21.326Z,81.30
2018-09-05T22:44:08.289Z,81.60
2018-09-05T22:46:54.680Z,81.70
2018-09-05T22:52:56.706Z,82.50
2018-09-05T22:55:49.636Z,82.10
2018-09-05T23:02:51.547Z,82.80
2018-09-05T23:07:41.270Z,82.00
2018-09-05T23:10:27.650Z,83.30
2018-09-05T23:13:14.004Z,82.90
2018-09-05T23:17:03.906Z,83.10
2018-09-05T23:19:52.284Z,84.00
2018-09-05T23:22:21.669Z,83.70
2018-09-05T23:24:51.384Z,83.70
2018-09-05T23:27:21.428Z,84.20
2018-09-05T23:29:51.486Z,84.30
2018-09-05T23:32:21.423Z,83.90
2018-09-05T23:34:51.467Z,84.00
2018-09-05T23:37:21.479Z,84.40
2018-09-05T23:39:51.470Z,84.40
2018-09-05T23:42:21.424Z,84.30
2018-09-05T23:44:51.607Z,84.40
2018-09-05T23:47:21.463Z,85.20
2018-09-05T23:49:51.430Z,84.40
2018-09-05T23:52:21.446Z,84.30
2018-09-05T23:54:51.400Z,84.40
2018-09-05T23:57:21.458Z,84.40
2018-09-05T23:59:51.575Z,84.80
